createdAt,value
2018-12-12T00:00:05.169Z,97.34
2018-12-12T00:01:05.176Z,97.34
2018-12-12T00:02:05.150Z,97.65
2018-12-12T00:03:05.124Z,96.30
2018-12-12T00:04:05.118Z,96.09
2018-12-12T00:05:05.152Z,96.41
2018-12-12T00:06:05.134Z,96.92
2018-12-12T00:07:05.103Z,96.30
2018-12-12T00:08:05.087Z,96.92
2018-12-12T00:09:05.048Z,97.03
2018-12-12T00:10:05.043Z,97.03
2018-12-12T00:11:05.069Z,97.13
2018-12-12T00:12:05.033Z,97.61
2018-12-12T00:13:05.004Z,97.65
2018-12-12T00:14:05.015Z,97.44
2018-12-12T00:15:04.993Z,97.34
2018-12-12T00:16:05.009Z,97.40
2018-12-12T00:17:05.022Z,97.19
2018-12-12T00:18:04.972Z,97.75
2018-12-12T00:19:04.977Z,97.24
2018-12-12T00:20:04.949Z,97.65
2018-12-12T00:21:04.924Z,97.65
2018-12-12T00:22:04.933Z,97.96
2018-12-12T00:23:04.919Z,97.34
2018-12-12T00:24:04.896Z,98.27
2018-12-12T00:25:04.925Z,97.34
2018-12-12T00:26:04.873Z,96.98
2018-12-12T00:27:04.886Z,97.03
2018-12-12T00:28:04.946Z,98.80
2018-12-12T00:29:04.859Z,99.11
2018-12-12T00:30:04.843Z,98.48
2018-12-12T00:31:04.842Z,98.38
2018-12-12T00:32:04.850Z,98.07
2018-12-12T00:33:04.955Z,97.55
2018-12-12T00:34:04.797Z,98.38
2018-12-12T00:35:04.790Z,97.65
2018-12-12T00:36:04.775Z,97.75
2018-12-12T00:37:04.784Z,97.65
2018-12-12T00:38:04.748Z,97.65
2018-12-12T00:39:04.735Z,97.75
2018-12-12T00:40:04.739Z,99.01
2018-12-12T00:41:04.714Z,97.65
2018-12-12T00:42:04.746Z,98.38
2018-12-12T00:43:04.688Z,98.07
2018-12-12T00:44:04.701Z,99.01
2018-12-12T00:45:04.664Z,98.27
2018-12-12T00:46:04.661Z,98.27
2018-12-12T00:47:04.656Z,99.21
2018-12-12T00:48:04.659Z,97.96
2018-12-12T00:49:04.628Z,97.86
2018-12-12T00:50:04.613Z,97.75
2018-12-12T00:51:04.607Z,97.96
2018-12-12T00:52:04.638Z,97.96
2018-12-12T00:53:04.595Z,98.38
2018-12-12T00:54:04.564Z,98.27
2018-12-12T00:55:04.549Z,98.27
2018-12-12T00:56:04.558Z,98.59
2018-12-12T00:57:04.541Z,98.27
2018-12-12T00:58:04.553Z,97.44
2018-12-12T00:59:04.527Z,97.50
2018-12-12T01:00:04.525Z,98.38
2018-12-12T01:01:04.496Z,98.48
2018-12-12T01:02:04.516Z,97.75
2018-12-12T01:03:04.475Z,98.27
2018-12-12T01:04:04.476Z,98.13
2018-12-12T01:05:04.833Z,98.02
2018-12-12T01:06:04.429Z,99.32
2018-12-12T01:07:04.425Z,98.38
2018-12-12T01:08:04.409Z,98.90
2018-12-12T01:09:04.414Z,98.75
2018-12-12T01:10:04.404Z,98.75
2018-12-12T01:11:04.459Z,98.75
2018-12-12T01:12:04.372Z,98.80
2018-12-12T01:13:04.363Z,98.90
2018-12-12T01:14:04.349Z,98.65
2018-12-12T01:15:04.580Z,98.96
2018-12-12T01:16:04.337Z,99.06
2018-12-12T01:17:04.346Z,98.69
2018-12-12T01:18:04.301Z,98.38
2018-12-12T01:19:04.309Z,98.48
2018-12-12T01:20:04.286Z,98.80
2018-12-12T01:21:04.303Z,98.80
2018-12-12T01:22:04.325Z,99.21
2018-12-12T01:23:04.272Z,99.21
2018-12-12T01:24:04.242Z,98.80
2018-12-12T01:25:04.246Z,99.52
2018-12-12T01:26:04.219Z,99.32
2018-12-12T01:27:04.228Z,99.42
2018-12-12T01:28:04.202Z,99.58
2018-12-12T01:29:04.223Z,99.84
2018-12-12T01:30:04.182Z,99.73
2018-12-12T01:31:04.162Z,99.73
2018-12-12T01:32:04.192Z,99.94
2018-12-12T01:33:04.172Z,99.48
2018-12-12T01:34:04.159Z,99.73
2018-12-12T01:35:04.122Z,99.90
2018-12-12T01:36:04.124Z,99.37
2018-12-12T01:37:04.094Z,99.99
2018-12-12T01:38:04.125Z,99.99
2018-12-12T01:39:04.106Z,99.94
2018-12-12T01:40:04.083Z,99.52
2018-12-12T01:41:04.059Z,99.37
2018-12-12T01:42:04.051Z,99.37
2018-12-12T01:43:04.039Z,99.73
2018-12-12T01:44:04.044Z,99.58
2018-12-12T01:45:04.045Z,99.99
2018-12-12T01:46:04.017Z,99.79
2018-12-12T01:47:03.995Z,99.48
2018-12-12T01:48:04.002Z,99.90
2018-12-12T01:49:04.020Z,99.90
2018-12-12T01:50:03.982Z,99.99
2018-12-12T01:51:03.983Z,99.99
2018-12-12T01:52:03.939Z,99.79
2018-12-12T01:53:03.927Z,99.99
2018-12-12T01:54:03.933Z,99.90
2018-12-12T01:55:03.927Z,99.79
2018-12-12T01:56:03.922Z,99.90
2018-12-12T01:57:03.897Z,99.79
2018-12-12T01:58:03.873Z,99.68
2018-12-12T01:59:03.862Z,99.68
2018-12-12T02:00:03.864Z,99.99
2018-12-12T02:01:03.914Z,99.99
2018-12-12T02:02:03.854Z,99.99
2018-12-12T02:03:03.829Z,99.99
2018-12-12T02:04:03.820Z,99.99
2018-12-12T02:05:03.801Z,99.99
2018-12-12T02:06:03.791Z,99.99
2018-12-12T02:07:04.202Z,99.99
2018-12-12T02:08:03.767Z,99.99
2018-12-12T02:09:03.746Z,99.99
2018-12-12T02:10:03.733Z,99.99
2018-12-12T02:11:03.733Z,99.99
2018-12-12T02:12:03.713Z,99.99
2018-12-12T02:13:03.754Z,99.64
2018-12-12T02:14:03.721Z,99.58
2018-12-12T02:15:03.703Z,99.48
2018-12-12T02:16:03.682Z,99.99
2018-12-12T02:17:03.661Z,99.85
2018-12-12T02:18:03.661Z,99.90
2018-12-12T02:19:03.678Z,99.99
2018-12-12T02:20:03.645Z,99.90
2018-12-12T02:21:03.631Z,99.90
2018-12-12T02:22:03.633Z,99.85
2018-12-12T02:23:03.628Z,99.95
2018-12-12T02:24:03.588Z,99.85
2018-12-12T02:25:03.607Z,99.33
2018-12-12T02:26:03.602Z,99.85
2018-12-12T02:27:04.067Z,99.64
2018-12-12T02:28:03.561Z,99.85
2018-12-12T02:29:03.602Z,99.22
2018-12-12T02:30:03.532Z,99.33
2018-12-12T02:31:03.533Z,99.43
2018-12-12T02:32:03.525Z,99.95
2018-12-12T02:33:03.519Z,99.54
2018-12-12T02:34:03.484Z,99.43
2018-12-12T02:35:03.484Z,99.95
2018-12-12T02:36:03.463Z,99.43
2018-12-12T02:37:03.477Z,99.33
2018-12-12T02:38:03.448Z,99.33
2018-12-12T02:39:03.437Z,98.91
2018-12-12T02:40:03.436Z,98.81
2018-12-12T02:41:03.440Z,98.81
2018-12-12T02:42:03.389Z,99.33
2018-12-12T02:43:03.384Z,99.43
2018-12-12T02:44:03.373Z,99.12
2018-12-12T02:45:03.392Z,99.54
2018-12-12T02:46:03.399Z,99.22
2018-12-12T02:47:03.355Z,99.12
2018-12-12T02:48:03.349Z,99.33
2018-12-12T02:49:03.311Z,99.49
2018-12-12T02:50:03.304Z,99.54
2018-12-12T02:51:03.304Z,99.38
2018-12-12T02:52:03.305Z,98.86
2018-12-12T02:53:03.275Z,99.07
2018-12-12T02:54:03.260Z,98.86
2018-12-12T02:55:03.251Z,99.07
2018-12-12T02:56:03.259Z,98.71
2018-12-12T02:57:03.231Z,99.18
2018-12-12T02:58:03.225Z,98.91
2018-12-12T02:59:03.221Z,98.86
2018-12-12T03:00:03.207Z,98.60
2018-12-12T03:01:03.208Z,98.81
2018-12-12T03:02:03.194Z,98.39
2018-12-12T03:03:03.168Z,98.91
2018-12-12T03:04:03.158Z,99.18
2018-12-12T03:05:03.154Z,98.76
2018-12-12T03:06:03.168Z,98.97
2018-12-12T03:07:03.122Z,99.07
2018-12-12T03:08:03.106Z,99.18
2018-12-12T03:09:03.103Z,99.07
2018-12-12T03:10:03.098Z,99.38
2018-12-12T03:11:03.085Z,99.80
2018-12-12T03:12:03.099Z,99.80
2018-12-12T03:13:03.047Z,99.85
2018-12-12T03:14:03.048Z,99.28
2018-12-12T03:15:03.034Z,99.99
2018-12-12T03:16:03.019Z,99.99
2018-12-12T03:17:03.028Z,99.99
2018-12-12T03:18:03.004Z,99.91
2018-12-12T03:19:03.004Z,99.80
2018-12-12T03:20:02.985Z,99.80
2018-12-12T03:21:02.963Z,99.28
2018-12-12T03:22:02.970Z,99.38
2018-12-12T03:23:02.957Z,99.91
2018-12-12T03:24:02.952Z,99.70
2018-12-12T03:25:02.940Z,99.80
2018-12-12T03:26:02.913Z,99.59
2018-12-12T03:27:02.926Z,99.70
2018-12-12T03:28:02.890Z,99.38
2018-12-12T03:29:02.886Z,99.28
2018-12-12T03:30:02.928Z,98.66
2018-12-12T03:31:02.871Z,99.70
2018-12-12T03:32:02.867Z,99.28
2018-12-12T03:33:02.863Z,98.86
2018-12-12T03:34:02.825Z,98.24
2018-12-12T03:35:02.808Z,98.45
2018-12-12T03:36:02.812Z,97.93
2018-12-12T03:37:02.828Z,97.83
2018-12-12T03:38:02.795Z,98.24
2018-12-12T03:39:02.769Z,98.03
2018-12-12T03:40:02.790Z,98.55
2018-12-12T03:41:02.751Z,99.18
2018-12-12T03:42:02.792Z,98.45
2018-12-12T03:43:02.729Z,98.45
2018-12-12T03:44:02.737Z,98.24
2018-12-12T03:45:02.702Z,97.41
2018-12-12T03:46:02.708Z,97.93
2018-12-12T03:47:02.715Z,98.24
2018-12-12T03:48:02.688Z,97.83
2018-12-12T03:49:02.697Z,97.93
2018-12-12T03:50:02.674Z,97.72
2018-12-12T03:51:02.651Z,97.31
2018-12-12T03:52:02.643Z,97.52
2018-12-12T03:53:02.617Z,97.93
2018-12-12T03:54:02.625Z,97.89
2018-12-12T03:55:02.637Z,97.31
2018-12-12T03:56:02.607Z,97.52
2018-12-12T03:57:02.576Z,97.83
2018-12-12T03:58:02.563Z,97.00
2018-12-12T03:59:02.563Z,97.41
2018-12-12T04:00:02.593Z,97.31
2018-12-12T04:01:02.554Z,97.10
2018-12-12T04:02:02.542Z,96.89
2018-12-12T04:03:02.517Z,97.10
2018-12-12T04:04:02.508Z,96.79
2018-12-12T04:05:02.500Z,97.10
2018-12-12T04:06:02.472Z,96.48
2018-12-12T04:07:02.465Z,97.10
2018-12-12T04:08:02.457Z,97.00
2018-12-12T04:09:02.459Z,97.20
2018-12-12T04:10:02.470Z,97.20
2018-12-12T04:11:02.436Z,96.89
2018-12-12T04:12:02.408Z,97.31
2018-12-12T04:13:02.424Z,98.24
2018-12-12T04:14:02.398Z,97.62
2018-12-12T04:15:02.448Z,97.00
2018-12-12T04:16:02.365Z,97.06
2018-12-12T04:17:02.371Z,96.58
2018-12-12T04:18:02.342Z,96.58
2018-12-12T04:19:02.326Z,96.27
2018-12-12T04:20:02.325Z,97.10
2018-12-12T04:21:02.381Z,96.58
2018-12-12T04:22:02.303Z,96.58
2018-12-12T04:23:02.310Z,96.58
2018-12-12T04:24:02.289Z,96.33
2018-12-12T04:25:02.368Z,96.27
2018-12-12T04:26:02.258Z,96.06
2018-12-12T04:27:02.276Z,96.17
2018-12-12T04:28:02.237Z,96.27
2018-12-12T04:29:02.223Z,96.79
2018-12-12T04:30:02.212Z,96.37
2018-12-12T04:31:02.223Z,96.17
2018-12-12T04:32:02.302Z,95.86
2018-12-12T04:33:02.202Z,96.17
2018-12-12T04:34:02.178Z,95.96
2018-12-12T04:35:02.199Z,96.27
2018-12-12T04:36:02.156Z,96.06
2018-12-12T04:37:02.132Z,95.86
2018-12-12T04:38:02.471Z,96.37
2018-12-12T04:39:02.108Z,96.27
2018-12-12T04:40:02.106Z,95.96
2018-12-12T04:41:02.112Z,96.06
2018-12-12T04:42:02.093Z,95.96
2018-12-12T04:43:02.103Z,96.48
2018-12-12T04:44:02.075Z,96.31
2018-12-12T04:45:02.051Z,96.27
2018-12-12T04:46:02.041Z,95.54
2018-12-12T04:47:02.098Z,95.90
2018-12-12T04:48:02.043Z,96.00
2018-12-12T04:49:02.015Z,96.00
2018-12-12T04:50:02.007Z,95.90
2018-12-12T04:51:01.988Z,96.11
2018-12-12T04:52:01.976Z,96.11
2018-12-12T04:53:02.639Z,96.11
2018-12-12T04:54:01.959Z,96.00
2018-12-12T04:55:01.954Z,96.11
2018-12-12T04:56:01.950Z,96.00
2018-12-12T04:57:01.927Z,95.79
2018-12-12T04:58:01.906Z,95.63
2018-12-12T04:59:01.908Z,96.04
2018-12-12T05:00:01.922Z,96.25
2018-12-12T05:01:01.872Z,96.15
2018-12-12T05:02:01.854Z,95.94
2018-12-12T05:03:01.862Z,96.25
2018-12-12T05:04:01.866Z,95.90
2018-12-12T05:05:01.839Z,94.18
2018-12-12T05:06:01.858Z,95.32
2018-12-12T05:07:01.826Z,94.59
2018-12-12T05:08:01.803Z,94.28
2018-12-12T05:09:01.799Z,94.28
2018-12-12T05:10:01.794Z,94.80
2018-12-12T05:11:01.786Z,94.18
2018-12-12T05:12:01.748Z,95.01
2018-12-12T05:13:01.758Z,94.53
2018-12-12T05:14:01.735Z,94.49
2018-12-12T05:15:01.725Z,94.12
2018-12-12T05:16:01.737Z,95.32
2018-12-12T05:17:01.710Z,94.95
2018-12-12T05:18:01.707Z,95.01
2018-12-12T05:19:01.693Z,95.36
2018-12-12T05:20:01.695Z,95.57
2018-12-12T05:21:01.676Z,95.67
2018-12-12T05:22:01.655Z,95.15
2018-12-12T05:23:01.635Z,95.26
2018-12-12T05:24:01.639Z,95.78
2018-12-12T05:25:01.628Z,94.95
2018-12-12T05:26:01.637Z,95.47
2018-12-12T05:27:01.595Z,94.43
2018-12-12T05:28:01.586Z,94.12
2018-12-12T05:29:01.560Z,94.32
2018-12-12T05:30:01.562Z,94.53
2018-12-12T05:31:01.581Z,95.36
2018-12-12T05:32:01.573Z,95.47
2018-12-12T05:33:01.561Z,95.93
2018-12-12T05:34:01.609Z,95.47
2018-12-12T05:35:01.528Z,95.26
2018-12-12T05:36:01.522Z,95.36
2018-12-12T05:37:01.498Z,95.89
2018-12-12T05:38:01.505Z,95.47
2018-12-12T05:39:01.457Z,95.36
2018-12-12T05:40:01.453Z,94.68
2018-12-12T05:41:01.458Z,95.30
2018-12-12T05:42:01.436Z,95.72
2018-12-12T05:43:01.472Z,96.03
2018-12-12T05:44:01.413Z,96.03
2018-12-12T05:45:01.405Z,96.03
2018-12-12T05:46:02.091Z,96.34
2018-12-12T05:47:01.370Z,95.62
2018-12-12T05:48:01.376Z,96.45
2018-12-12T05:49:01.411Z,96.24
2018-12-12T05:50:01.359Z,96.34
2018-12-12T05:51:01.343Z,96.14
2018-12-12T05:52:01.327Z,96.34
2018-12-12T05:53:01.302Z,95.93
2018-12-12T05:54:01.309Z,96.55
2018-12-12T05:55:01.317Z,96.08
2018-12-12T05:56:02.535Z,96.59
2018-12-12T05:57:01.303Z,96.59
2018-12-12T05:58:01.272Z,97.01
2018-12-12T05:59:01.246Z,97.53
2018-12-12T06:00:01.282Z,97.33
2018-12-12T06:01:01.224Z,97.68
2018-12-12T06:02:01.218Z,97.47
2018-12-12T06:03:01.203Z,97.37
2018-12-12T06:04:01.195Z,97.58
2018-12-12T06:05:01.180Z,97.47
2018-12-12T06:06:01.187Z,97.37
2018-12-12T06:07:01.167Z,97.47
2018-12-12T06:08:01.145Z,97.27
2018-12-12T06:09:01.143Z,98.41
2018-12-12T06:10:01.131Z,98.20
2018-12-12T06:11:01.124Z,98.52
2018-12-12T06:12:01.156Z,98.41
2018-12-12T06:13:01.093Z,98.68
2018-12-12T06:14:01.078Z,98.41
2018-12-12T06:15:01.069Z,97.53
2018-12-12T06:16:01.048Z,98.68
2018-12-12T06:17:01.055Z,98.36
2018-12-12T06:18:01.072Z,98.36
2018-12-12T06:19:01.031Z,98.72
2018-12-12T06:20:01.014Z,98.72
2018-12-12T06:21:01.008Z,97.74
2018-12-12T06:22:01.007Z,98.47
2018-12-12T06:23:01.024Z,97.64
2018-12-12T06:24:01.003Z,97.53
2018-12-12T06:25:00.965Z,97.22
2018-12-12T06:26:00.948Z,97.85
2018-12-12T06:27:00.938Z,98.36
2018-12-12T06:28:00.922Z,98.36
2018-12-12T06:29:00.935Z,98.16
2018-12-12T06:30:00.937Z,98.78
2018-12-12T06:31:00.909Z,97.74
2018-12-12T06:32:00.887Z,97.74
2018-12-12T06:33:00.888Z,98.05
2018-12-12T06:34:00.896Z,98.47
2018-12-12T06:35:00.880Z,97.64
2018-12-12T06:36:00.862Z,97.22
2018-12-12T06:37:00.841Z,97.01
2018-12-12T06:38:00.813Z,97.53
2018-12-12T06:39:00.826Z,97.64
2018-12-12T06:40:00.831Z,97.95
2018-12-12T06:41:00.810Z,98.36
2018-12-12T06:42:00.793Z,98.68
2018-12-12T06:43:00.784Z,97.53
2018-12-12T06:44:00.762Z,98.57
2018-12-12T06:45:01.367Z,97.43
2018-12-12T06:46:00.737Z,97.33
2018-12-12T06:47:00.720Z,98.57
2018-12-12T06:48:00.711Z,98.47
2018-12-12T06:49:00.721Z,98.36
2018-12-12T06:50:00.765Z,98.05
2018-12-12T06:51:00.672Z,97.43
2018-12-12T06:52:00.671Z,97.33
2018-12-12T06:53:00.661Z,97.64
2018-12-12T06:54:00.730Z,97.43
2018-12-12T06:55:00.664Z,97.49
2018-12-12T06:56:00.638Z,98.16
2018-12-12T06:57:00.617Z,97.59
2018-12-12T06:58:00.610Z,98.63
2018-12-12T06:59:00.602Z,97.70
2018-12-12T07:00:00.664Z,98.01
2018-12-12T07:01:00.581Z,97.38
2018-12-12T07:02:00.569Z,97.49
2018-12-12T07:03:00.559Z,98.43
2018-12-12T07:04:00.587Z,97.28
2018-12-12T07:05:00.546Z,97.17
2018-12-12T07:06:00.518Z,96.97
2018-12-12T07:07:00.513Z,97.49
2018-12-12T07:08:00.510Z,97.59
2018-12-12T07:09:00.495Z,97.49
2018-12-12T07:10:00.492Z,97.38
2018-12-12T07:11:00.466Z,97.17
2018-12-12T07:12:00.464Z,97.28
2018-12-12T07:13:00.449Z,97.17
2018-12-12T07:14:00.454Z,97.28
2018-12-12T07:15:00.439Z,96.97
2018-12-12T07:16:00.414Z,97.07
2018-12-12T07:17:00.420Z,97.28
2018-12-12T07:18:00.377Z,97.28
2018-12-12T07:19:00.368Z,97.70
2018-12-12T07:20:00.375Z,97.28
2018-12-12T07:21:00.367Z,96.97
2018-12-12T07:22:00.348Z,96.34
2018-12-12T07:23:00.365Z,96.97
2018-12-12T07:24:00.326Z,96.82
2018-12-12T07:25:00.335Z,95.99
2018-12-12T07:26:00.343Z,96.09
2018-12-12T07:27:00.305Z,95.21
2018-12-12T07:28:00.290Z,95.01
2018-12-12T07:29:00.258Z,93.47
2018-12-12T07:30:00.287Z,92.11
2018-12-12T07:31:00.250Z,92.11
2018-12-12T07:32:00.241Z,91.35
2018-12-12T07:33:00.232Z,90.20
2018-12-12T07:34:01.110Z,90.83
2018-12-12T07:35:00.222Z,91.18
2018-12-12T07:36:00.195Z,92.11
2018-12-12T07:37:00.201Z,92.26
2018-12-12T07:38:00.159Z,93.30
2018-12-12T07:39:00.200Z,92.93
2018-12-12T07:40:00.179Z,93.66
2018-12-12T07:41:00.131Z,94.07
2018-12-12T07:42:00.134Z,93.87
2018-12-12T07:43:00.129Z,94.38
2018-12-12T07:44:00.103Z,94.43
2018-12-12T07:45:00.129Z,94.49
2018-12-12T07:46:00.110Z,94.59
2018-12-12T07:47:00.166Z,94.28
2018-12-12T07:48:01.561Z,95.42
2018-12-12T07:49:00.055Z,95.26
2018-12-12T07:50:00.044Z,95.36
2018-12-12T07:51:00.056Z,95.36
2018-12-12T07:52:00.031Z,95.05
2018-12-12T07:53:00.010Z,95.05
2018-12-12T07:54:00.008Z,94.84
2018-12-12T07:54:59.981Z,94.74
2018-12-12T07:56:00.003Z,94.43
2018-12-12T07:57:00.014Z,94.70
2018-12-12T07:57:59.965Z,94.74
2018-12-12T07:58:59.952Z,94.74
2018-12-12T07:59:59.935Z,95.01
2018-12-12T08:00:59.910Z,94.70
2018-12-12T08:01:59.916Z,95.26
2018-12-12T08:03:05.379Z,95.26
2018-12-12T08:04:00.953Z,95.26
2018-12-12T08:04:59.910Z,95.89
2018-12-12T08:05:59.907Z,95.57
2018-12-12T08:06:59.881Z,95.67
2018-12-12T08:07:59.879Z,95.15
2018-12-12T08:08:59.832Z,95.89
2018-12-12T08:09:59.844Z,95.63
2018-12-12T08:10:59.817Z,95.01
2018-12-12T08:11:59.810Z,95.26
2018-12-12T08:12:59.784Z,95.21
2018-12-12T08:13:59.795Z,95.73
2018-12-12T08:14:59.807Z,95.73
2018-12-12T08:15:59.776Z,95.84
2018-12-12T08:16:59.782Z,96.15
2018-12-12T08:17:59.739Z,96.25
2018-12-12T08:18:59.749Z,96.25
2018-12-12T08:19:59.721Z,96.04
2018-12-12T08:20:59.728Z,96.21
2018-12-12T08:21:59.718Z,96.36
2018-12-12T08:22:59.686Z,96.36
2018-12-12T08:23:59.668Z,96.42
2018-12-12T08:24:59.709Z,97.56
2018-12-12T08:25:59.679Z,96.42
2018-12-12T08:26:59.655Z,96.21
2018-12-12T08:27:59.627Z,96.00
2018-12-12T08:28:59.622Z,96.52
2018-12-12T08:29:59.609Z,96.21
2018-12-12T08:30:59.637Z,96.52
2018-12-12T08:31:59.583Z,96.00
2018-12-12T08:32:59.566Z,96.00
2018-12-12T08:33:59.548Z,96.00
2018-12-12T08:34:59.547Z,96.48
2018-12-12T08:35:59.529Z,96.89
2018-12-12T08:36:59.571Z,96.37
2018-12-12T08:37:59.519Z,96.37
2018-12-12T08:38:59.516Z,96.37
2018-12-12T08:39:59.525Z,96.17
2018-12-12T08:40:59.485Z,96.79
2018-12-12T08:41:59.474Z,96.89
2018-12-12T08:42:59.485Z,96.73
2018-12-12T08:43:59.461Z,96.48
2018-12-12T08:44:59.454Z,96.79
2018-12-12T08:45:59.443Z,96.48
2018-12-12T08:46:59.430Z,96.06
2018-12-12T08:47:59.429Z,96.27
2018-12-12T08:48:59.423Z,96.06
2018-12-12T08:49:59.397Z,95.96
2018-12-12T08:50:59.399Z,95.96
2018-12-12T08:51:59.365Z,96.33
2018-12-12T08:52:59.343Z,96.44
2018-12-12T08:53:59.364Z,97.27
2018-12-12T08:54:59.353Z,96.37
2018-12-12T08:55:59.328Z,96.17
2018-12-12T08:56:59.306Z,95.92
2018-12-12T08:57:59.341Z,95.96
2018-12-12T08:58:59.296Z,96.06
2018-12-12T08:59:59.292Z,96.06
2018-12-12T09:00:59.273Z,96.02
2018-12-12T09:01:59.274Z,96.48
2018-12-12T09:02:59.243Z,96.44
2018-12-12T09:03:59.254Z,96.02
2018-12-12T09:04:59.260Z,95.71
2018-12-12T09:05:59.200Z,96.12
2018-12-12T09:06:59.224Z,96.12
2018-12-12T09:07:59.198Z,96.33
2018-12-12T09:08:59.219Z,96.54
2018-12-12T09:09:59.179Z,96.02
2018-12-12T09:10:59.165Z,96.02
2018-12-12T09:11:59.171Z,95.61
2018-12-12T09:12:59.140Z,95.71
2018-12-12T09:13:59.136Z,95.40
2018-12-12T09:14:59.159Z,96.33
2018-12-12T09:15:59.107Z,95.50
2018-12-12T09:16:59.112Z,95.67
2018-12-12T09:17:59.095Z,95.81
2018-12-12T09:18:59.611Z,95.56
2018-12-12T09:19:59.085Z,95.04
2018-12-12T09:20:59.044Z,94.42
2018-12-12T09:21:59.051Z,95.87
2018-12-12T09:22:59.035Z,95.56
2018-12-12T09:23:59.013Z,94.48
2018-12-12T09:24:59.054Z,95.31
2018-12-12T09:25:59.629Z,94.63
2018-12-12T09:26:58.976Z,95.00
2018-12-12T09:27:58.963Z,94.06
2018-12-12T09:28:58.974Z,94.27
2018-12-12T09:29:58.980Z,94.37
2018-12-12T09:30:58.943Z,94.17
2018-12-12T09:31:58.928Z,94.37
2018-12-12T09:32:58.919Z,94.58
2018-12-12T09:33:58.909Z,94.17
2018-12-12T09:34:58.920Z,93.96
2018-12-12T09:35:58.886Z,93.33
2018-12-12T09:36:58.877Z,93.85
2018-12-12T09:37:58.883Z,93.44
2018-12-12T09:38:58.844Z,93.23
2018-12-12T09:39:58.833Z,93.13
2018-12-12T09:40:58.844Z,93.23
2018-12-12T09:41:58.822Z,92.61
2018-12-12T09:42:58.858Z,93.44
2018-12-12T09:43:58.795Z,93.13
2018-12-12T09:44:58.778Z,94.17
2018-12-12T09:45:58.842Z,93.65
2018-12-12T09:46:58.785Z,93.08
2018-12-12T09:47:58.763Z,92.20
2018-12-12T09:48:58.759Z,92.57
2018-12-12T09:49:58.771Z,94.23
2018-12-12T09:50:58.718Z,93.56
2018-12-12T09:51:58.713Z,93.19
2018-12-12T09:52:58.724Z,92.78
2018-12-12T09:53:58.743Z,92.57
2018-12-12T09:54:58.707Z,92.11
2018-12-12T09:55:58.666Z,92.84
2018-12-12T09:56:58.650Z,92.32
2018-12-12T09:57:58.648Z,92.11
2018-12-12T09:58:58.625Z,92.32
2018-12-12T09:59:58.658Z,92.43
2018-12-12T10:00:58.608Z,92.32
2018-12-12T10:01:58.611Z,92.59
2018-12-12T10:02:58.585Z,91.45
2018-12-12T10:03:58.592Z,91.35
2018-12-12T10:04:58.567Z,91.55
2018-12-12T10:05:58.608Z,91.35
2018-12-12T10:06:58.546Z,90.97
2018-12-12T10:07:58.555Z,91.35
2018-12-12T10:08:58.523Z,91.66
2018-12-12T10:09:58.530Z,92.11
2018-12-12T10:10:58.529Z,91.39
2018-12-12T10:11:58.509Z,91.86
2018-12-12T10:12:58.485Z,90.83
2018-12-12T10:13:58.483Z,90.72
2018-12-12T10:14:58.461Z,91.35
2018-12-12T10:15:58.470Z,91.49
2018-12-12T10:16:58.467Z,91.86
2018-12-12T10:17:58.420Z,91.18
2018-12-12T10:18:58.420Z,91.08
2018-12-12T10:19:58.404Z,91.60
2018-12-12T10:20:58.504Z,92.22
2018-12-12T10:21:58.394Z,92.53
2018-12-12T10:22:58.379Z,92.43
2018-12-12T10:23:58.390Z,91.70
2018-12-12T10:24:58.364Z,91.55
2018-12-12T10:25:58.340Z,91.86
2018-12-12T10:26:58.349Z,91.35
2018-12-12T10:27:58.324Z,90.41
2018-12-12T10:28:58.314Z,91.03
2018-12-12T10:29:58.323Z,91.24
2018-12-12T10:30:58.273Z,92.07
2018-12-12T10:31:58.267Z,91.09
2018-12-12T10:32:58.270Z,90.93
2018-12-12T10:33:58.252Z,89.13
2018-12-12T10:34:58.245Z,89.13
2018-12-12T10:35:58.260Z,89.75
2018-12-12T10:36:58.223Z,89.65
2018-12-12T10:37:58.213Z,89.65
2018-12-12T10:38:58.251Z,90.89
2018-12-12T10:39:58.209Z,90.16
2018-12-12T10:40:58.181Z,88.61
2018-12-12T10:41:58.160Z,88.86
2018-12-12T10:42:58.239Z,89.58
2018-12-12T10:43:58.140Z,89.69
2018-12-12T10:44:58.166Z,90.10
2018-12-12T10:45:58.153Z,90.20
2018-12-12T10:46:58.131Z,90.52
2018-12-12T10:47:58.105Z,89.79
2018-12-12T10:48:58.084Z,89.69
2018-12-12T10:49:58.069Z,90.20
2018-12-12T10:50:58.095Z,90.93
2018-12-12T10:51:58.056Z,90.62
2018-12-12T10:52:58.040Z,90.31
2018-12-12T10:53:58.021Z,89.89
2018-12-12T10:54:58.027Z,90.20
2018-12-12T10:55:58.031Z,90.72
2018-12-12T10:56:58.033Z,90.20
2018-12-12T10:57:58.010Z,90.52
2018-12-12T10:58:57.990Z,90.93
2018-12-12T10:59:57.975Z,89.89
2018-12-12T11:00:57.975Z,90.31
2018-12-12T11:01:57.959Z,89.69
2018-12-12T11:02:57.970Z,89.79
2018-12-12T11:03:57.915Z,89.17
2018-12-12T11:04:57.919Z,89.69
2018-12-12T11:05:57.913Z,89.38
2018-12-12T11:06:57.881Z,88.76
2018-12-12T11:07:57.888Z,89.17
2018-12-12T11:08:57.901Z,88.76
2018-12-12T11:09:57.871Z,89.69
2018-12-12T11:10:57.853Z,89.42
2018-12-12T11:11:57.835Z,89.21
2018-12-12T11:12:57.858Z,89.38
2018-12-12T11:13:57.814Z,88.76
2018-12-12T11:14:57.810Z,88.86
2018-12-12T11:15:57.783Z,89.07
2018-12-12T11:16:57.781Z,89.48
2018-12-12T11:17:57.767Z,88.96
2018-12-12T11:18:57.799Z,88.03
2018-12-12T11:19:57.764Z,89.17
2018-12-12T11:20:57.749Z,89.28
2018-12-12T11:21:57.730Z,88.34
2018-12-12T11:22:57.722Z,89.17
2018-12-12T11:23:57.718Z,88.30
2018-12-12T11:24:57.728Z,87.68
2018-12-12T11:25:57.703Z,86.85
2018-12-12T11:26:57.662Z,87.57
2018-12-12T11:27:57.660Z,87.88
2018-12-12T11:28:57.650Z,87.57
2018-12-12T11:29:57.639Z,88.40
2018-12-12T11:30:57.644Z,88.86
2018-12-12T11:31:57.640Z,88.13
2018-12-12T11:32:57.606Z,87.93
2018-12-12T11:33:57.595Z,87.51
2018-12-12T11:34:57.582Z,88.59
2018-12-12T11:35:57.599Z,88.86
2018-12-12T11:36:57.570Z,88.55
2018-12-12T11:37:57.554Z,88.76
2018-12-12T11:38:57.552Z,87.82
2018-12-12T11:39:57.522Z,88.76
2018-12-12T11:40:57.527Z,89.11
2018-12-12T11:41:57.547Z,88.59
2018-12-12T11:42:57.503Z,89.28
2018-12-12T11:43:57.488Z,88.90
2018-12-12T11:44:57.465Z,88.86
2018-12-12T11:45:57.456Z,88.45
2018-12-12T11:46:58.057Z,88.76
2018-12-12T11:47:57.519Z,88.65
2018-12-12T11:48:57.435Z,87.62
2018-12-12T11:49:57.425Z,87.30
2018-12-12T11:50:57.409Z,87.78
2018-12-12T11:51:57.395Z,86.02
2018-12-12T11:52:57.391Z,86.33
2018-12-12T11:53:57.396Z,85.50
2018-12-12T11:54:57.362Z,85.82
2018-12-12T11:55:57.358Z,85.09
2018-12-12T11:56:57.375Z,85.50
2018-12-12T11:57:57.336Z,84.74
2018-12-12T11:58:57.360Z,83.50
2018-12-12T11:59:57.319Z,83.40
2018-12-12T12:00:57.296Z,82.78
2018-12-12T12:01:57.301Z,82.78
2018-12-12T12:02:57.286Z,83.19
2018-12-12T12:03:57.300Z,82.57
2018-12-12T12:04:57.290Z,82.88
2018-12-12T12:05:57.258Z,82.81
2018-12-12T12:06:57.238Z,82.67
2018-12-12T12:07:57.228Z,81.54
2018-12-12T12:08:57.216Z,81.26
2018-12-12T12:09:57.216Z,81.05
2018-12-12T12:10:57.201Z,81.84
2018-12-12T12:11:57.191Z,81.43
2018-12-12T12:12:57.172Z,80.95
2018-12-12T12:13:57.153Z,80.85
2018-12-12T12:14:57.142Z,79.71
2018-12-12T12:15:57.153Z,80.43
2018-12-12T12:16:57.137Z,81.09
2018-12-12T12:17:57.128Z,81.61
2018-12-12T12:18:57.118Z,81.40
2018-12-12T12:19:57.090Z,81.20
2018-12-12T12:20:57.098Z,81.20
2018-12-12T12:21:57.087Z,81.40
2018-12-12T12:22:57.065Z,80.68
2018-12-12T12:23:57.042Z,81.92
2018-12-12T12:24:57.055Z,82.86
2018-12-12T12:25:57.056Z,82.34
2018-12-12T12:26:57.014Z,83.26
2018-12-12T12:27:57.016Z,84.72
2018-12-12T12:28:57.013Z,83.37
2018-12-12T12:29:56.996Z,83.99
2018-12-12T12:30:56.981Z,83.26
2018-12-12T12:31:56.968Z,84.09
2018-12-12T12:32:56.974Z,84.41
2018-12-12T12:34:03.101Z,84.65
2018-12-12T12:34:57.944Z,84.75
2018-12-12T12:35:56.923Z,84.65
2018-12-12T12:36:56.922Z,85.06
2018-12-12T12:37:56.905Z,83.93
2018-12-12T12:38:56.903Z,84.23
2018-12-12T12:39:56.907Z,83.62
2018-12-12T12:40:56.875Z,84.55
2018-12-12T12:41:56.859Z,84.55
2018-12-12T12:42:56.849Z,84.44
2018-12-12T12:43:56.847Z,83.10
2018-12-12T12:44:56.818Z,84.55
2018-12-12T12:45:56.850Z,84.69
2018-12-12T12:46:56.793Z,84.86
2018-12-12T12:47:56.796Z,85.38
2018-12-12T12:48:56.779Z,85.52
2018-12-12T12:49:56.781Z,84.48
2018-12-12T12:50:56.759Z,84.90
2018-12-12T12:51:56.770Z,85.00